createdAt,value
2022-11-24T00:01:06.551Z,1.88
2022-11-24T00:03:33.499Z,2.00
2022-11-24T00:06:12.235Z,1.80
2022-11-24T00:08:40.669Z,1.77
2022-11-24T00:11:10.119Z,1.73
2022-11-24T00:13:39.159Z,1.70
2022-11-24T00:16:19.639Z,2.17
2022-11-24T00:18:48.312Z,2.30
2022-11-24T00:21:18.713Z,2.28
2022-11-24T00:23:46.471Z,2.05
2022-11-24T00:26:20.769Z,1.98
2022-11-24T00:28:49.392Z,2.05
2022-11-24T00:31:32.236Z,2.00
2022-11-24T00:34:01.417Z,2.67
2022-11-24T00:36:30.885Z,3.33
2022-11-24T00:39:03.845Z,2.25
2022-11-24T00:41:30.936Z,1.52
2022-11-24T00:43:58.758Z,1.60
2022-11-24T00:46:26.345Z,2.05
2022-11-24T00:48:53.958Z,2.00
2022-11-24T00:51:24.030Z,1.65
2022-11-24T00:53:50.911Z,1.83
2022-11-24T00:56:17.753Z,1.95
2022-11-24T00:58:44.529Z,1.67
2022-11-24T01:01:15.682Z,1.98
2022-11-24T01:03:42.737Z,2.05
2022-11-24T01:06:12.543Z,1.75
2022-11-24T01:08:41.559Z,1.80
2022-11-24T01:11:10.287Z,2.03
2022-11-24T01:13:37.717Z,1.88
2022-11-24T01:16:04.929Z,1.40
2022-11-24T01:18:31.770Z,1.70
2022-11-24T01:20:58.582Z,1.77
2022-11-24T01:23:25.306Z,2.00
2022-11-24T01:25:52.030Z,1.67
2022-11-24T01:28:18.815Z,1.40
2022-11-24T01:30:47.189Z,1.83
2022-11-24T01:33:13.976Z,1.75
2022-11-24T01:35:40.763Z,1.60
2022-11-24T01:38:07.523Z,1.58
2022-11-24T01:40:34.266Z,1.40
2022-11-24T01:43:01.023Z,1.42
2022-11-24T01:45:40.565Z,1.60
2022-11-24T01:48:27.364Z,1.30
2022-11-24T01:51:11.542Z,1.85
2022-11-24T01:56:06.519Z,1.30
2022-11-24T01:58:35.959Z,1.58
2022-11-24T02:01:02.810Z,1.30
2022-11-24T02:03:35.339Z,1.40
2022-11-24T02:06:07.719Z,1.67
2022-11-24T02:08:51.826Z,1.48
2022-11-24T02:11:21.006Z,1.55
2022-11-24T02:13:48.575Z,1.45
2022-11-24T02:16:15.524Z,1.50
2022-11-24T02:18:42.474Z,1.38
2022-11-24T02:21:11.975Z,1.50
2022-11-24T02:23:51.042Z,1.48
2022-11-24T02:26:36.218Z,1.25
2022-11-24T02:29:03.116Z,1.48
2022-11-24T02:31:30.035Z,1.40
2022-11-24T02:33:57.081Z,1.30
2022-11-24T02:36:24.360Z,1.55
2022-11-24T02:38:51.104Z,1.20
2022-11-24T02:41:25.147Z,1.30
2022-11-24T02:43:59.838Z,1.10
2022-11-24T02:46:26.638Z,1.50
2022-11-24T02:48:53.446Z,1.40
2022-11-24T02:51:20.247Z,1.42
2022-11-24T02:53:47.011Z,1.15
2022-11-24T02:56:13.746Z,1.15
2022-11-24T02:58:40.518Z,1.20
2022-11-24T03:01:07.524Z,1.10
2022-11-24T03:03:34.576Z,1.13
2022-11-24T03:06:01.373Z,1.70
2022-11-24T03:08:28.103Z,1.30
2022-11-24T03:10:54.932Z,1.42
2022-11-24T03:13:21.678Z,1.00
2022-11-24T03:15:48.691Z,1.00
2022-11-24T03:18:15.472Z,1.20
2022-11-24T03:20:42.168Z,1.40
2022-11-24T03:23:08.913Z,1.20
2022-11-24T03:25:35.668Z,1.38
2022-11-24T03:28:02.975Z,1.48
2022-11-24T03:30:30.393Z,1.27
2022-11-24T03:32:57.190Z,1.58
2022-11-24T03:35:25.932Z,1.92
2022-11-24T03:37:52.790Z,1.67
2022-11-24T03:40:19.573Z,1.40
2022-11-24T03:42:46.446Z,1.92
2022-11-24T03:47:59.939Z,1.63
2022-11-24T03:50:26.647Z,1.50
2022-11-24T03:52:53.462Z,1.27
2022-11-24T03:55:20.159Z,1.67
2022-11-24T03:57:46.879Z,1.50
2022-11-24T04:00:14.022Z,1.70
2022-11-24T04:02:40.783Z,1.20
2022-11-24T04:05:07.903Z,1.83
2022-11-24T04:07:34.703Z,1.90
2022-11-24T04:10:01.595Z,1.98
2022-11-24T04:12:46.630Z,1.80
2022-11-24T04:15:18.753Z,2.25
2022-11-24T04:17:46.879Z,1.67
2022-11-24T04:20:14.243Z,1.90
2022-11-24T04:22:41.531Z,2.15
2022-11-24T04:25:09.317Z,1.77
2022-11-24T04:27:37.225Z,1.35
2022-11-24T04:30:06.146Z,1.92
2022-11-24T04:32:32.868Z,2.03
2022-11-24T04:34:59.618Z,1.55
2022-11-24T04:37:26.500Z,1.80
2022-11-24T04:39:55.094Z,1.92
2022-11-24T04:42:21.932Z,2.00
2022-11-24T04:44:48.645Z,1.95
2022-11-24T04:47:22.245Z,1.70
2022-11-24T04:49:49.240Z,2.05
2022-11-24T04:52:17.554Z,1.40
2022-11-24T04:54:44.341Z,1.92
2022-11-24T04:57:22.706Z,1.60
2022-11-24T04:59:50.546Z,1.50
2022-11-24T05:02:17.728Z,1.95
2022-11-24T05:04:44.898Z,2.17
2022-11-24T05:07:18.066Z,2.03
2022-11-24T05:10:04.485Z,1.50
2022-11-24T05:12:31.476Z,2.10
2022-11-24T05:14:59.412Z,1.77
2022-11-24T05:17:31.411Z,2.13
2022-11-24T05:19:58.404Z,2.40
2022-11-24T05:22:26.035Z,2.00
2022-11-24T05:24:52.830Z,2.08
2022-11-24T05:27:19.565Z,1.58
2022-11-24T05:29:46.331Z,2.38
2022-11-24T05:32:13.049Z,1.58
2022-11-24T05:34:39.756Z,1.67
2022-11-24T05:37:06.835Z,1.65
2022-11-24T05:39:35.450Z,1.52
2022-11-24T05:42:22.579Z,1.95
2022-11-24T05:44:49.460Z,2.42
2022-11-24T05:47:16.375Z,2.47
2022-11-24T05:49:43.385Z,1.90
2022-11-24T05:52:10.848Z,1.55
2022-11-24T05:54:37.638Z,1.90
2022-11-24T05:57:05.003Z,1.90
2022-11-24T05:59:31.794Z,1.75
2022-11-24T06:01:58.748Z,1.70
2022-11-24T06:04:25.636Z,1.85
2022-11-24T06:06:52.434Z,2.20
2022-11-24T06:09:19.309Z,2.25
2022-11-24T06:11:48.249Z,2.20
2022-11-24T06:14:15.053Z,2.05
2022-11-24T06:16:41.877Z,2.28
2022-11-24T06:19:10.883Z,2.40
2022-11-24T06:21:37.929Z,2.03
2022-11-24T06:24:05.434Z,2.05
2022-11-24T06:26:32.476Z,2.38
2022-11-24T06:28:59.350Z,2.22
2022-11-24T06:31:32.504Z,1.60
2022-11-24T06:33:59.981Z,2.38
2022-11-24T06:36:32.945Z,2.25
2022-11-24T06:39:05.060Z,2.33
2022-11-24T06:41:39.264Z,2.22
2022-11-24T06:44:16.361Z,2.13
2022-11-24T06:46:43.150Z,2.22
2022-11-24T06:49:18.479Z,2.30
2022-11-24T06:51:45.536Z,1.77
2022-11-24T06:54:21.460Z,2.40
2022-11-24T06:56:48.353Z,2.10
2022-11-24T06:59:43.541Z,2.00
2022-11-24T07:02:10.894Z,1.90
2022-11-24T07:05:02.989Z,2.45
2022-11-24T07:07:29.783Z,2.53
2022-11-24T07:10:05.852Z,1.88
2022-11-24T07:12:35.873Z,2.03
2022-11-24T07:15:28.597Z,2.05
2022-11-24T07:17:55.532Z,2.17
2022-11-24T07:20:33.334Z,1.88
2022-11-24T07:23:00.626Z,2.13
2022-11-24T07:25:36.500Z,1.80
2022-11-24T07:28:17.215Z,2.15
2022-11-24T07:30:54.622Z,2.75
2022-11-24T07:33:25.082Z,3.28
2022-11-24T07:36:01.476Z,2.30
2022-11-24T07:38:37.188Z,2.30
2022-11-24T07:41:19.400Z,2.22
2022-11-24T07:43:47.433Z,2.45
2022-11-24T07:46:23.480Z,2.13
2022-11-24T07:48:50.448Z,2.20
2022-11-24T07:51:44.948Z,2.17
2022-11-24T07:54:11.987Z,1.98
2022-11-24T07:57:04.458Z,2.00
2022-11-24T07:59:31.281Z,2.28
2022-11-24T08:02:09.213Z,1.85
2022-11-24T08:04:37.143Z,3.00
2022-11-24T08:07:09.949Z,2.80
2022-11-24T08:09:36.827Z,1.73
2022-11-24T08:12:12.807Z,1.67
2022-11-24T08:14:40.548Z,1.73
2022-11-24T08:17:33.688Z,1.55
2022-11-24T08:20:00.790Z,1.75
2022-11-24T08:22:36.789Z,1.70
2022-11-24T08:25:03.886Z,2.42
2022-11-24T08:27:40.069Z,1.90
2022-11-24T08:30:15.805Z,2.20
2022-11-24T08:32:42.764Z,1.58
2022-11-24T08:35:22.375Z,1.83
2022-11-24T08:37:49.257Z,0.80
2022-11-24T08:40:25.381Z,1.92
2022-11-24T08:42:52.968Z,1.08
2022-11-24T08:45:30.431Z,0.73
2022-11-24T08:48:08.908Z,0.65
2022-11-24T08:50:45.113Z,0.60
2022-11-24T08:53:11.944Z,0.70
2022-11-24T08:55:40.861Z,0.60
2022-11-24T08:58:10.651Z,1.52
2022-11-24T09:00:37.452Z,1.00
2022-11-24T09:03:12.002Z,0.50
2022-11-24T09:05:54.472Z,0.80
2022-11-24T09:08:21.284Z,0.67
2022-11-24T09:11:17.180Z,0.55
2022-11-24T09:13:44.768Z,0.80
2022-11-24T09:16:20.412Z,0.50
2022-11-24T09:18:57.107Z,0.50
2022-11-24T09:21:24.130Z,0.40
2022-11-24T09:24:01.812Z,0.40
2022-11-24T09:26:31.093Z,0.60
2022-11-24T09:29:08.032Z,0.30
2022-11-24T09:31:45.312Z,0.30
2022-11-24T09:34:15.024Z,0.60
2022-11-24T09:36:51.582Z,0.45
2022-11-24T09:39:25.882Z,0.50
2022-11-24T09:42:52.074Z,0.47
2022-11-24T09:46:09.818Z,0.30
2022-11-24T09:48:51.855Z,0.30
2022-11-24T09:51:31.790Z,0.40
2022-11-24T09:54:16.687Z,0.40
2022-11-24T09:56:55.620Z,0.30
2022-11-24T09:59:33.948Z,0.20
2022-11-24T10:02:01.208Z,0.17
2022-11-24T10:04:39.443Z,0.40
2022-11-24T10:08:17.357Z,0.20
2022-11-24T10:11:01.395Z,0.68
2022-11-24T10:13:40.294Z,0.28
2022-11-24T10:16:43.465Z,0.30
2022-11-24T10:19:47.730Z,0.30
2022-11-24T10:22:30.230Z,0.10
2022-11-24T10:25:15.439Z,0.40
2022-11-24T10:28:15.165Z,0.20
2022-11-24T10:31:16.728Z,0.40
2022-11-24T10:33:52.671Z,0.32
2022-11-24T10:36:56.145Z,0.10
2022-11-24T10:40:55.931Z,0.38
2022-11-24T10:43:20.780Z,0.38
2022-11-24T10:45:55.170Z,0.32
2022-11-24T10:48:27.218Z,0.30
2022-11-24T10:51:15.336Z,0.30
2022-11-24T10:53:43.312Z,0.40
2022-11-24T10:56:17.908Z,0.60
2022-11-24T10:58:44.814Z,0.55
2022-11-24T11:01:59.707Z,0.40
2022-11-24T11:04:40.143Z,0.57
2022-11-24T11:07:25.067Z,0.40
2022-11-24T11:10:25.154Z,0.40
2022-11-24T11:12:51.972Z,0.40
2022-11-24T11:15:29.808Z,0.70
2022-11-24T11:18:06.719Z,0.40
2022-11-24T11:23:31.094Z,0.65
2022-11-24T11:26:19.016Z,0.70
2022-11-24T11:34:57.602Z,0.77
2022-11-24T11:37:35.988Z,0.60
2022-11-24T11:40:03.533Z,0.70
2022-11-24T11:45:45.538Z,1.05
2022-11-24T11:48:44.040Z,0.90
2022-11-24T11:51:30.022Z,0.80
2022-11-24T11:54:30.446Z,1.30
2022-11-24T11:57:42.826Z,0.77
2022-11-24T12:00:24.476Z,1.00
2022-11-24T12:03:33.095Z,0.93
2022-11-24T12:06:31.189Z,1.40
2022-11-24T12:09:29.325Z,1.20
2022-11-24T12:12:50.457Z,1.17
2022-11-24T12:15:53.514Z,1.17
2022-11-24T12:18:57.534Z,0.95
2022-11-24T12:21:43.096Z,1.10
2022-11-24T12:25:00.550Z,1.10
2022-11-24T12:28:16.973Z,1.52
2022-11-24T12:31:36.934Z,1.42
2022-11-24T12:34:56.578Z,1.45
2022-11-24T12:37:46.709Z,1.00
2022-11-24T12:40:48.303Z,1.23
2022-11-24T12:43:40.035Z,1.30
2022-11-24T12:46:08.879Z,1.00
2022-11-24T12:48:48.203Z,1.30
2022-11-24T12:51:29.764Z,1.20
2022-11-24T12:54:17.382Z,1.75
2022-11-24T12:59:39.204Z,1.20
2022-11-24T13:07:51.827Z,1.40
2022-11-24T13:13:32.349Z,1.10
2022-11-24T13:16:38.511Z,1.27
2022-11-24T13:20:04.095Z,1.42
2022-11-24T13:22:46.392Z,1.13
2022-11-24T13:25:39.822Z,1.35
2022-11-24T13:28:06.928Z,1.17
2022-11-24T13:38:46.120Z,1.23
2022-11-24T13:41:31.379Z,1.20
2022-11-24T13:44:05.814Z,0.82
2022-11-24T13:44:16.004Z,1.85
2022-11-24T13:47:07.276Z,1.20
2022-11-24T13:53:13.776Z,1.45
2022-11-24T14:07:36.415Z,1.35
2022-11-24T14:10:03.563Z,1.33
2022-11-24T14:13:24.838Z,1.55
2022-11-24T14:16:20.132Z,1.73
2022-11-24T14:19:08.272Z,1.38
2022-11-24T14:25:49.448Z,1.58
2022-11-24T14:28:45.752Z,1.10
2022-11-24T14:31:51.839Z,1.58
2022-11-24T14:34:50.156Z,1.55
2022-11-24T14:37:27.619Z,1.33
2022-11-24T14:44:58.558Z,1.20
2022-11-24T14:47:37.840Z,1.60
2022-11-24T14:54:37.016Z,1.50
2022-11-24T14:57:06.027Z,1.88
2022-11-24T15:00:06.267Z,1.42
2022-11-24T15:05:23.700Z,1.60
2022-11-24T15:07:39.652Z,1.98
2022-11-24T15:10:43.771Z,2.20
2022-11-24T15:14:01.380Z,2.15
2022-11-24T15:16:30.193Z,3.20
2022-11-24T15:19:15.302Z,1.60
2022-11-24T15:21:51.392Z,1.38
2022-11-24T15:24:53.402Z,1.92
2022-11-24T15:27:29.696Z,2.22
2022-11-24T15:31:10.220Z,1.33
2022-11-24T15:33:50.248Z,1.70
2022-11-24T15:36:32.474Z,1.73
2022-11-24T15:39:14.715Z,1.80
2022-11-24T15:41:42.138Z,2.30
2022-11-24T15:44:37.498Z,2.67
2022-11-24T15:47:04.640Z,1.60
2022-11-24T15:49:59.368Z,1.60
2022-11-24T15:52:26.189Z,1.73
2022-11-24T15:55:21.352Z,2.25
2022-11-24T15:58:04.017Z,2.83
2022-11-24T16:00:47.111Z,3.08
2022-11-24T16:06:25.036Z,2.95
2022-11-24T16:09:28.404Z,3.30
2022-11-24T16:20:00.762Z,4.05
2022-11-24T16:22:59.313Z,4.28
2022-11-24T16:25:53.024Z,3.58
2022-11-24T16:28:20.386Z,3.53
2022-11-24T16:37:58.008Z,3.05
2022-11-24T16:40:24.834Z,6.40
2022-11-24T16:43:19.500Z,3.80
2022-11-24T16:46:18.580Z,2.75
2022-11-24T16:52:06.161Z,2.60
2022-11-24T16:54:42.351Z,2.47
2022-11-24T16:57:15.025Z,3.85
2022-11-24T16:59:46.553Z,2.50
2022-11-24T17:02:13.755Z,2.00
2022-11-24T17:05:09.684Z,4.35
2022-11-24T17:07:36.547Z,2.63
2022-11-24T17:10:30.755Z,2.40
2022-11-24T17:13:50.494Z,2.80
2022-11-24T17:20:03.297Z,2.92
2022-11-24T17:22:42.286Z,2.92
2022-11-24T17:25:22.960Z,3.20
2022-11-24T17:28:40.274Z,3.13
2022-11-24T17:31:21.114Z,2.50
2022-11-24T17:34:16.744Z,3.50
2022-11-24T17:36:45.971Z,8.25
2022-11-24T17:39:24.803Z,9.35
2022-11-24T17:41:52.062Z,6.00
2022-11-24T17:44:27.080Z,3.17
2022-11-24T17:47:10.461Z,3.00
2022-11-24T17:49:46.040Z,2.65
2022-11-24T17:52:12.862Z,2.60
2022-11-24T17:54:47.119Z,3.75
2022-11-24T17:57:19.470Z,2.95
2022-11-24T17:59:53.804Z,3.13
2022-11-24T18:02:37.330Z,4.93
2022-11-24T18:08:59.196Z,6.57
2022-11-24T18:11:55.755Z,6.32
2022-11-24T18:14:22.663Z,6.72
2022-11-24T18:17:16.938Z,6.30
2022-11-24T18:19:43.870Z,6.00
2022-11-24T18:23:04.595Z,5.55
2022-11-24T18:25:43.857Z,5.63
2022-11-24T18:31:02.949Z,5.28
2022-11-24T18:33:31.879Z,6.00
2022-11-24T18:36:29.968Z,4.90
2022-11-24T18:39:09.985Z,7.13
2022-11-24T18:41:51.279Z,9.10
2022-11-24T18:44:26.631Z,5.45
2022-11-24T18:47:09.474Z,4.43
2022-11-24T18:49:46.400Z,5.95
2022-11-24T18:52:14.057Z,5.65
2022-11-24T18:54:48.867Z,5.35
2022-11-24T19:01:19.611Z,4.10
2022-11-24T19:03:56.270Z,3.47
2022-11-24T19:06:36.128Z,4.18
2022-11-24T19:16:44.411Z,3.90
2022-11-24T19:19:21.420Z,4.20
2022-11-24T19:22:21.949Z,17.20
2022-11-24T19:25:28.827Z,26.30
2022-11-24T19:28:53.594Z,15.13
2022-11-24T19:49:56.121Z,7.45
2022-11-24T19:52:23.293Z,6.80
2022-11-24T19:54:50.182Z,6.15
2022-11-24T19:57:16.953Z,6.05
2022-11-24T19:59:45.677Z,6.18
2022-11-24T20:02:12.579Z,6.10
2022-11-24T20:04:41.291Z,4.82
2022-11-24T20:07:08.149Z,5.00
2022-11-24T20:09:35.045Z,5.00
2022-11-24T20:12:01.847Z,5.57
2022-11-24T20:14:28.612Z,5.10
2022-11-24T20:16:55.423Z,4.70
2022-11-24T20:19:22.233Z,4.28
2022-11-24T20:21:50.189Z,3.60
2022-11-24T20:24:20.068Z,3.28
2022-11-24T20:26:50.719Z,3.80
2022-11-24T20:29:18.193Z,3.15
2022-11-24T20:31:51.012Z,3.00
2022-11-24T20:34:18.538Z,3.33
2022-11-24T20:36:46.891Z,2.88
2022-11-24T20:39:16.548Z,2.90
2022-11-24T20:41:43.752Z,2.47
2022-11-24T20:44:16.182Z,3.20
2022-11-24T20:46:45.614Z,3.15
2022-11-24T20:49:14.947Z,3.72
2022-11-24T20:51:44.180Z,3.03
2022-11-24T20:54:13.125Z,3.38
2022-11-24T20:56:42.464Z,2.90
2022-11-24T20:59:13.500Z,3.40
2022-11-24T21:01:43.451Z,3.20
2022-11-24T21:04:12.758Z,3.13
2022-11-24T21:06:40.383Z,3.35
2022-11-24T21:09:08.589Z,3.22
2022-11-24T21:11:35.982Z,3.47
2022-11-24T21:14:03.015Z,3.33
2022-11-24T21:16:31.931Z,3.17
2022-11-24T21:19:04.461Z,3.55
2022-11-24T21:21:36.163Z,3.50
2022-11-24T21:24:06.007Z,3.53
2022-11-24T21:26:36.797Z,2.90
2022-11-24T21:29:04.580Z,3.45
2022-11-24T21:31:34.295Z,3.15
2022-11-24T21:34:01.043Z,5.13
2022-11-24T21:36:27.912Z,5.50
2022-11-24T21:38:56.876Z,5.28
2022-11-24T21:41:25.997Z,5.68
2022-11-24T21:43:55.827Z,4.80
2022-11-24T21:46:23.333Z,4.50
2022-11-24T21:48:50.275Z,4.18
2022-11-24T21:51:19.865Z,4.70
2022-11-24T21:53:47.584Z,4.13
2022-11-24T21:56:17.626Z,4.28
2022-11-24T21:58:45.761Z,3.78
2022-11-24T22:01:13.451Z,5.30
2022-11-24T22:03:40.519Z,9.43
2022-11-24T22:06:07.867Z,6.18
2022-11-24T22:08:35.169Z,5.88
2022-11-24T22:11:13.889Z,6.13
2022-11-24T22:13:41.778Z,4.13
2022-11-24T22:16:14.331Z,4.00
2022-11-24T22:18:42.722Z,3.35
2022-11-24T22:21:18.910Z,3.58
2022-11-24T22:23:46.288Z,3.33
2022-11-24T22:26:16.031Z,3.05
2022-11-24T22:28:43.937Z,3.25
2022-11-24T22:31:17.033Z,2.83
2022-11-24T22:33:44.418Z,3.15
2022-11-24T22:36:12.519Z,3.38
2022-11-24T22:38:39.470Z,3.72
2022-11-24T22:41:11.311Z,2.95
2022-11-24T22:43:39.811Z,2.80
2022-11-24T22:46:15.139Z,3.53
2022-11-24T22:48:43.205Z,3.72
2022-11-24T22:51:12.546Z,3.42
2022-11-24T22:53:39.960Z,3.67
2022-11-24T22:56:11.342Z,3.00
2022-11-24T22:58:39.360Z,4.53
2022-11-24T23:01:08.311Z,4.22
2022-11-24T23:03:35.981Z,3.90
2022-11-24T23:06:05.476Z,4.18
2022-11-24T23:08:34.165Z,4.72
2022-11-24T23:11:02.536Z,4.70
2022-11-24T23:13:29.782Z,4.85
2022-11-24T23:16:08.096Z,4.32
2022-11-24T23:18:34.961Z,5.10
2022-11-24T23:21:13.937Z,6.60
2022-11-24T23:23:41.132Z,6.55
2022-11-24T23:26:10.537Z,7.07
2022-11-24T23:28:37.781Z,7.38
2022-11-24T23:31:13.906Z,5.75
2022-11-24T23:33:41.237Z,5.65
2022-11-24T23:36:17.541Z,6.18
2022-11-24T23:38:45.081Z,5.50
2022-11-24T23:41:14.662Z,4.88
2022-11-24T23:43:42.234Z,4.72
2022-11-24T23:46:13.506Z,4.63
2022-11-24T23:48:40.583Z,3.40
2022-11-24T23:51:21.899Z,4.10
2022-11-24T23:53:49.285Z,3.40
2022-11-24T23:56:19.225Z,3.65
2022-11-24T23:58:46.099Z,3.80
